METAR AND TAF INFORMATION
METAR FOR LGMK
ADDS - METARS form results

(0946 UTC 08 December 2021)
Data provider http://aviationweather.gov/metar/data/
 
METAR text: LGMK 080920Z 32006KT 9999 FEW020 15/06 Q1009
Conditions at: LGMK (MIKONOS ISLAND , GR) observed 0920 UTC 08 December 2021
Temperature: 15.0°C (59°F)
Dewpoint: 6.0°C (43°F) [RH = 55%]
Pressure (altimeter): 29.79 inches Hg (1009.0 mb)
Winds: from the NW (320 degrees) at 7 MPH (6 knots; 3.1 m/s)
Visibility: 6 or more miles (10+ km)
Ceiling: at least 12,000 feet AGL
Clouds: few clouds at 2000 feet AGL
Weather: no significant weather observed at this time

METAR text: LGMK 080850Z 33006KT 9999 FEW015 14/06 Q1008
Conditions at: LGMK (MIKONOS ISLAND , GR) observed 0850 UTC 08 December 2021
Temperature: 14.0°C (57°F)
Dewpoint: 6.0°C (43°F) [RH = 58%]
Pressure (altimeter): 29.76 inches Hg (1008.0 mb)
Winds: from the NNW (330 degrees) at 7 MPH (6 knots; 3.1 m/s)
Visibility: 6 or more miles (10+ km)
Ceiling: at least 12,000 feet AGL
Clouds: few clouds at 1500 feet AGL
Weather: no significant weather observed at this time

Forecast for: LGMK (MIKONOS ISLAND , GR)
Text: TAF LGMK 080800Z 0809/0818 33016KT 9999 FEW015 SCT025
Forecast period: 0900 to 1600 UTC 08 December 2021
Forecast type: FROM: standard forecast or significant change
Winds: from the NNW (330 degrees) at 18 MPH (16 knots; 8.2 m/s)
Visibility: 6 or more miles (10+ km)
Ceiling: at least 12,000 feet AGL
Clouds: few clouds at 1500 feet AGL
scattered clouds at 2500 feet AGL
Weather: no significant weather forecast for this period
Text: BECMG 0816/0818 23012KT
Forecast period: 1600 to 1800 UTC 08 December 2021
Forecast type: BECOMING: Conditions expected to become as follows by 1800 UTC 08 December 2021
Winds: from the SW (230 degrees) at 14 MPH (12 knots; 6.2 m/s)
Visibility: 6 or more miles (10+ km)
Ceiling: at least 12,000 feet AGL
Clouds: few clouds at 1500 feet AGL
scattered clouds at 2500 feet AGL
Weather: no significant weather forecast for this period

 AIRPORT MAP

 RUNWAY INFORMATION
Runway 16 Runway length 6244 ft Runway width 98 ft
Runway elevation 395 ft Runway displaced threshold 0 ft Runway heading 160
Runway 34 Runway length 6244 ft Runway width 98 ft
Runway elevation 388 ft Runway displaced threshold 0 ft Runway heading 340

 AIRPORT FREQUENCIES
Type A/G Name RDO Frequency 563.7 MHZ
Type APP Name APP Frequency 118.75 MHZ
Type TWR Name TWR Frequency 118.75 MHZ

 AIRPORT NEAR NAVIGATION AIDS
Type VOR-DME Name Mikonos Frequency 110000 KHZ
Type NDB Name Mikonos Frequency 401 KHZ